sensor_id;sensor_type;location;lat;lon;timestamp;P1;durP1;ratioP1;P2;durP2;ratioP2
82560;SDS011;72228;51.208;10.468;2024-01-16T00:02:02;0.80;;;0.80;;
82560;SDS011;72228;51.208;10.468;2024-01-16T00:04:28;5.03;;;1.33;;
82560;SDS011;72228;51.208;10.468;2024-01-16T00:06:55;7.55;;;1.15;;
82560;SDS011;72228;51.208;10.468;2024-01-16T00:09:21;1.23;;;1.13;;
82560;SDS011;72228;51.208;10.468;2024-01-16T00:11:46;1.55;;;0.90;;
82560;SDS011;72228;51.208;10.468;2024-01-16T00:14:12;7.95;;;0.90;;
82560;SDS011;72228;51.208;10.468;2024-01-16T00:16:44;2.47;;;1.40;;
82560;SDS011;72228;51.208;10.468;2024-01-16T00:19:11;0.47;;;0.47;;
82560;SDS011;72228;51.208;10.468;2024-01-16T00:21:38;2.85;;;1.15;;
82560;SDS011;72228;51.208;10.468;2024-01-16T00:24:08;2.38;;;1.33;;
82560;SDS011;72228;51.208;10.468;2024-01-16T00:26:34;3.85;;;2.30;;
82560;SDS011;72228;51.208;10.468;2024-01-16T00:28:59;1.80;;;1.30;;
82560;SDS011;72228;51.208;10.468;2024-01-16T00:31:26;3.08;;;1.42;;
82560;SDS011;72228;51.208;10.468;2024-01-16T00:33:52;4.97;;;1.75;;
82560;SDS011;72228;51.208;10.468;2024-01-16T00:36:18;1.63;;;1.02;;
82560;SDS011;72228;51.208;10.468;2024-01-16T00:38:44;4.68;;;1.77;;
82560;SDS011;72228;51.208;10.468;2024-01-16T00:41:11;0.57;;;0.47;;
82560;SDS011;72228;51.208;10.468;2024-01-16T00:43:38;3.20;;;1.45;;
82560;SDS011;72228;51.208;10.468;2024-01-16T00:46:04;2.72;;;1.60;;
82560;SDS011;72228;51.208;10.468;2024-01-16T00:48:29;2.90;;;1.85;;
82560;SDS011;72228;51.208;10.468;2024-01-16T00:50:55;3.58;;;1.60;;
82560;SDS011;72228;51.208;10.468;2024-01-16T00:53:21;5.22;;;1.92;;
82560;SDS011;72228;51.208;10.468;2024-01-16T00:55:47;2.75;;;1.77;;
82560;SDS011;72228;51.208;10.468;2024-01-16T00:58:13;3.28;;;1.58;;
82560;SDS011;72228;51.208;10.468;2024-01-16T01:00:38;1.38;;;1.27;;
82560;SDS011;72228;51.208;10.468;2024-01-16T01:03:04;6.97;;;2.75;;
82560;SDS011;72228;51.208;10.468;2024-01-16T01:05:30;4.18;;;1.67;;
82560;SDS011;72228;51.208;10.468;2024-01-16T01:07:56;7.45;;;1.75;;
82560;SDS011;72228;51.208;10.468;2024-01-16T01:10:41;4.15;;;1.73;;
82560;SDS011;72228;51.208;10.468;2024-01-16T01:13:07;1.83;;;1.55;;
82560;SDS011;72228;51.208;10.468;2024-01-16T01:15:33;8.35;;;0.95;;
82560;SDS011;72228;51.208;10.468;2024-01-16T01:17:59;1.95;;;1.42;;
82560;SDS011;72228;51.208;10.468;2024-01-16T01:20:25;4.47;;;1.75;;
82560;SDS011;72228;51.208;10.468;2024-01-16T01:22:51;1.67;;;1.13;;
82560;SDS011;72228;51.208;10.468;2024-01-16T01:25:17;4.93;;;1.95;;
82560;SDS011;72228;51.208;10.468;2024-01-16T01:27:42;3.53;;;1.73;;
82560;SDS011;72228;51.208;10.468;2024-01-16T01:30:09;2.95;;;1.55;;
82560;SDS011;72228;51.208;10.468;2024-01-16T01:32:38;2.20;;;1.33;;
82560;SDS011;72228;51.208;10.468;2024-01-16T01:35:05;6.28;;;1.83;;
82560;SDS011;72228;51.208;10.468;2024-01-16T01:37:31;2.90;;;1.83;;
82560;SDS011;72228;51.208;10.468;2024-01-16T01:39:57;2.40;;;1.45;;
82560;SDS011;72228;51.208;10.468;2024-01-16T01:42:23;2.55;;;1.27;;
82560;SDS011;72228;51.208;10.468;2024-01-16T01:44:48;6.32;;;1.70;;
82560;SDS011;72228;51.208;10.468;2024-01-16T01:47:14;3.15;;;1.17;;
82560;SDS011;72228;51.208;10.468;2024-01-16T01:49:40;0.98;;;0.85;;
82560;SDS011;72228;51.208;10.468;2024-01-16T01:52:07;1.02;;;0.95;;
82560;SDS011;72228;51.208;10.468;2024-01-16T01:54:33;1.42;;;1.33;;
82560;SDS011;72228;51.208;10.468;2024-01-16T01:57:01;5.20;;;1.52;;
82560;SDS011;72228;51.208;10.468;2024-01-16T01:59:28;1.08;;;0.95;;
82560;SDS011;72228;51.208;10.468;2024-01-16T02:01:55;1.80;;;1.10;;
82560;SDS011;72228;51.208;10.468;2024-01-16T02:04:21;1.73;;;1.13;;
82560;SDS011;72228;51.208;10.468;2024-01-16T02:06:48;2.33;;;1.42;;
82560;SDS011;72228;51.208;10.468;2024-01-16T02:09:14;4.50;;;1.23;;
82560;SDS011;72228;51.208;10.468;2024-01-16T02:11:40;1.77;;;1.15;;
82560;SDS011;72228;51.208;10.468;2024-01-16T02:14:07;2.03;;;1.13;;
82560;SDS011;72228;51.208;10.468;2024-01-16T02:16:36;2.58;;;1.45;;
82560;SDS011;72228;51.208;10.468;2024-01-16T02:19:06;1.55;;;0.90;;
82560;SDS011;72228;51.208;10.468;2024-01-16T02:21:35;1.10;;;1.00;;
82560;SDS011;72228;51.208;10.468;2024-01-16T02:24:09;3.13;;;1.63;;
82560;SDS011;72228;51.208;10.468;2024-01-16T02:26:38;5.85;;;2.03;;
82560;SDS011;72228;51.208;10.468;2024-01-16T02:29:04;3.50;;;1.90;;
82560;SDS011;72228;51.208;10.468;2024-01-16T02:31:30;1.55;;;0.98;;
82560;SDS011;72228;51.208;10.468;2024-01-16T02:33:57;6.45;;;1.50;;
82560;SDS011;72228;51.208;10.468;2024-01-16T02:36:24;5.10;;;3.40;;
82560;SDS011;72228;51.208;10.468;2024-01-16T02:38:50;5.18;;;2.88;;
82560;SDS011;72228;51.208;10.468;2024-01-16T02:41:16;2.55;;;1.52;;
82560;SDS011;72228;51.208;10.468;2024-01-16T02:43:42;1.98;;;1.48;;
82560;SDS011;72228;51.208;10.468;2024-01-16T02:46:08;3.63;;;2.45;;
82560;SDS011;72228;51.208;10.468;2024-01-16T02:48:35;3.85;;;1.95;;
82560;SDS011;72228;51.208;10.468;2024-01-16T02:51:01;2.58;;;1.65;;
82560;SDS011;72228;51.208;10.468;2024-01-16T02:53:29;3.75;;;1.80;;
82560;SDS011;72228;51.208;10.468;2024-01-16T02:55:55;5.00;;;1.67;;
82560;SDS011;72228;51.208;10.468;2024-01-16T02:58:27;3.53;;;1.15;;
82560;SDS011;72228;51.208;10.468;2024-01-16T03:00:54;6.82;;;1.30;;
82560;SDS011;72228;51.208;10.468;2024-01-16T03:03:20;2.15;;;1.40;;
82560;SDS011;72228;51.208;10.468;2024-01-16T03:05:47;3.13;;;1.83;;
82560;SDS011;72228;51.208;10.468;2024-01-16T03:08:13;2.08;;;1.38;;
82560;SDS011;72228;51.208;10.468;2024-01-16T03:10:39;7.07;;;1.90;;
82560;SDS011;72228;51.208;10.468;2024-01-16T03:13:05;4.65;;;1.50;;
82560;SDS011;72228;51.208;10.468;2024-01-16T03:15:31;2.15;;;1.63;;
82560;SDS011;72228;51.208;10.468;2024-01-16T03:17:57;1.70;;;1.33;;
82560;SDS011;72228;51.208;10.468;2024-01-16T03:20:24;3.17;;;1.85;;
82560;SDS011;72228;51.208;10.468;2024-01-16T03:22:49;3.17;;;1.63;;
82560;SDS011;72228;51.208;10.468;2024-01-16T03:25:16;2.15;;;1.05;;
82560;SDS011;72228;51.208;10.468;2024-01-16T03:27:42;3.13;;;1.70;;
82560;SDS011;72228;51.208;10.468;2024-01-16T03:30:09;3.05;;;1.58;;
82560;SDS011;72228;51.208;10.468;2024-01-16T03:32:36;3.33;;;1.42;;
82560;SDS011;72228;51.208;10.468;2024-01-16T03:35:03;6.00;;;2.08;;
82560;SDS011;72228;51.208;10.468;2024-01-16T03:37:30;1.17;;;1.00;;
82560;SDS011;72228;51.208;10.468;2024-01-16T03:39:55;0.75;;;0.63;;
82560;SDS011;72228;51.208;10.468;2024-01-16T03:42:22;3.10;;;1.52;;
82560;SDS011;72228;51.208;10.468;2024-01-16T03:44:48;1.33;;;0.95;;
82560;SDS011;72228;51.208;10.468;2024-01-16T03:47:14;1.45;;;1.17;;
82560;SDS011;72228;51.208;10.468;2024-01-16T03:49:40;8.20;;;2.40;;
82560;SDS011;72228;51.208;10.468;2024-01-16T03:52:07;3.50;;;1.55;;
82560;SDS011;72228;51.208;10.468;2024-01-16T03:54:32;3.03;;;1.40;;
82560;SDS011;72228;51.208;10.468;2024-01-16T03:56:58;2.30;;;1.50;;
82560;SDS011;72228;51.208;10.468;2024-01-16T03:59:25;3.85;;;1.95;;
82560;SDS011;72228;51.208;10.468;2024-01-16T04:01:51;1.10;;;0.90;;
82560;SDS011;72228;51.208;10.468;2024-01-16T04:04:18;6.78;;;1.73;;
82560;SDS011;72228;51.208;10.468;2024-01-16T04:06:43;3.05;;;0.75;;
82560;SDS011;72228;51.208;10.468;2024-01-16T04:09:09;3.35;;;1.00;;
82560;SDS011;72228;51.208;10.468;2024-01-16T04:11:35;2.70;;;1.58;;
82560;SDS011;72228;51.208;10.468;2024-01-16T04:14:01;2.10;;;1.40;;
82560;SDS011;72228;51.208;10.468;2024-01-16T04:16:28;3.78;;;1.52;;
82560;SDS011;72228;51.208;10.468;2024-01-16T04:18:53;2.20;;;1.35;;
82560;SDS011;72228;51.208;10.468;2024-01-16T04:21:19;3.35;;;2.10;;
82560;SDS011;72228;51.208;10.468;2024-01-16T04:23:46;3.03;;;1.75;;
82560;SDS011;72228;51.208;10.468;2024-01-16T04:26:12;3.22;;;1.73;;
82560;SDS011;72228;51.208;10.468;2024-01-16T04:28:38;2.10;;;1.30;;
82560;SDS011;72228;51.208;10.468;2024-01-16T04:31:04;4.03;;;1.60;;
82560;SDS011;72228;51.208;10.468;2024-01-16T04:33:31;1.20;;;1.00;;
82560;SDS011;72228;51.208;10.468;2024-01-16T04:35:57;1.70;;;1.40;;
82560;SDS011;72228;51.208;10.468;2024-01-16T04:38:23;1.85;;;1.20;;
82560;SDS011;72228;51.208;10.468;2024-01-16T04:40:49;3.13;;;1.85;;
82560;SDS011;72228;51.208;10.468;2024-01-16T04:43:16;2.55;;;1.83;;
82560;SDS011;72228;51.208;10.468;2024-01-16T04:45:41;2.85;;;1.95;;
82560;SDS011;72228;51.208;10.468;2024-01-16T04:48:07;3.38;;;2.05;;
82560;SDS011;72228;51.208;10.468;2024-01-16T04:50:36;5.13;;;2.35;;
82560;SDS011;72228;51.208;10.468;2024-01-16T04:53:02;5.03;;;1.25;;
82560;SDS011;72228;51.208;10.468;2024-01-16T04:55:28;1.30;;;1.02;;
82560;SDS011;72228;51.208;10.468;2024-01-16T04:57:55;11.32;;;2.60;;
82560;SDS011;72228;51.208;10.468;2024-01-16T05:00:22;6.90;;;2.30;;
82560;SDS011;72228;51.208;10.468;2024-01-16T05:02:48;2.00;;;1.70;;
82560;SDS011;72228;51.208;10.468;2024-01-16T05:05:14;5.97;;;1.92;;
82560;SDS011;72228;51.208;10.468;2024-01-16T05:07:40;2.60;;;1.70;;
82560;SDS011;72228;51.208;10.468;2024-01-16T05:10:09;4.30;;;2.40;;
82560;SDS011;72228;51.208;10.468;2024-01-16T05:12:36;2.05;;;1.77;;
82560;SDS011;72228;51.208;10.468;2024-01-16T05:15:01;3.58;;;2.05;;
82560;SDS011;72228;51.208;10.468;2024-01-16T05:17:29;5.35;;;2.15;;
82560;SDS011;72228;51.208;10.468;2024-01-16T05:19:55;2.33;;;1.73;;
82560;SDS011;72228;51.208;10.468;2024-01-16T05:22:22;7.07;;;2.55;;
82560;SDS011;72228;51.208;10.468;2024-01-16T05:24:48;2.42;;;1.52;;
82560;SDS011;72228;51.208;10.468;2024-01-16T05:27:13;9.45;;;2.38;;
82560;SDS011;72228;51.208;10.468;2024-01-16T05:29:43;2.80;;;1.80;;
82560;SDS011;72228;51.208;10.468;2024-01-16T05:32:08;8.55;;;1.63;;
82560;SDS011;72228;51.208;10.468;2024-01-16T05:34:34;5.20;;;2.80;;
82560;SDS011;72228;51.208;10.468;2024-01-16T05:37:00;8.27;;;2.08;;
82560;SDS011;72228;51.208;10.468;2024-01-16T05:39:26;3.75;;;1.90;;
82560;SDS011;72228;51.208;10.468;2024-01-16T05:41:52;3.67;;;2.17;;
82560;SDS011;72228;51.208;10.468;2024-01-16T05:44:18;4.30;;;2.30;;
82560;SDS011;72228;51.208;10.468;2024-01-16T05:46:43;6.32;;;2.25;;
82560;SDS011;72228;51.208;10.468;2024-01-16T05:49:09;2.15;;;1.38;;
82560;SDS011;72228;51.208;10.468;2024-01-16T05:51:35;5.18;;;2.05;;
82560;SDS011;72228;51.208;10.468;2024-01-16T05:54:03;10.85;;;2.20;;
82560;SDS011;72228;51.208;10.468;2024-01-16T05:56:30;3.25;;;1.67;;
82560;SDS011;72228;51.208;10.468;2024-01-16T05:58:57;2.30;;;1.90;;
82560;SDS011;72228;51.208;10.468;2024-01-16T06:01:23;4.82;;;2.05;;
82560;SDS011;72228;51.208;10.468;2024-01-16T06:03:49;6.80;;;1.95;;
82560;SDS011;72228;51.208;10.468;2024-01-16T06:06:15;2.35;;;1.77;;
82560;SDS011;72228;51.208;10.468;2024-01-16T06:08:41;1.95;;;1.73;;
82560;SDS011;72228;51.208;10.468;2024-01-16T06:11:07;1.83;;;1.45;;
82560;SDS011;72228;51.208;10.468;2024-01-16T06:13:34;4.95;;;2.28;;
82560;SDS011;72228;51.208;10.468;2024-01-16T06:15:59;3.00;;;1.90;;
82560;SDS011;72228;51.208;10.468;2024-01-16T06:18:25;3.00;;;2.03;;
82560;SDS011;72228;51.208;10.468;2024-01-16T06:20:51;2.83;;;0.85;;
82560;SDS011;72228;51.208;10.468;2024-01-16T06:23:17;4.43;;;1.80;;
82560;SDS011;72228;51.208;10.468;2024-01-16T06:25:43;4.57;;;1.70;;
82560;SDS011;72228;51.208;10.468;2024-01-16T06:28:09;3.28;;;1.52;;
82560;SDS011;72228;51.208;10.468;2024-01-16T06:30:34;3.72;;;1.75;;
82560;SDS011;72228;51.208;10.468;2024-01-16T06:33:00;4.15;;;2.05;;
82560;SDS011;72228;51.208;10.468;2024-01-16T06:35:26;12.30;;;2.05;;
82560;SDS011;72228;51.208;10.468;2024-01-16T06:37:52;4.10;;;2.10;;
82560;SDS011;72228;51.208;10.468;2024-01-16T06:40:18;3.65;;;1.88;;
82560;SDS011;72228;51.208;10.468;2024-01-16T06:42:44;7.72;;;2.08;;
82560;SDS011;72228;51.208;10.468;2024-01-16T06:45:10;4.90;;;1.92;;
82560;SDS011;72228;51.208;10.468;2024-01-16T06:47:38;3.85;;;2.05;;
82560;SDS011;72228;51.208;10.468;2024-01-16T06:50:05;6.90;;;1.92;;
82560;SDS011;72228;51.208;10.468;2024-01-16T06:52:31;3.63;;;1.58;;
82560;SDS011;72228;51.208;10.468;2024-01-16T06:54:57;4.53;;;1.40;;
82560;SDS011;72228;51.208;10.468;2024-01-16T06:57:23;1.92;;;1.25;;
82560;SDS011;72228;51.208;10.468;2024-01-16T06:59:48;7.18;;;2.05;;
82560;SDS011;72228;51.208;10.468;2024-01-16T07:02:15;3.80;;;1.98;;
82560;SDS011;72228;51.208;10.468;2024-01-16T07:04:41;4.25;;;1.85;;
82560;SDS011;72228;51.208;10.468;2024-01-16T07:07:06;2.95;;;1.77;;
82560;SDS011;72228;51.208;10.468;2024-01-16T07:09:33;5.47;;;1.75;;
82560;SDS011;72228;51.208;10.468;2024-01-16T07:11:59;8.50;;;2.75;;
82560;SDS011;72228;51.208;10.468;2024-01-16T07:14:24;2.28;;;1.70;;
82560;SDS011;72228;51.208;10.468;2024-01-16T07:16:51;5.22;;;2.45;;
82560;SDS011;72228;51.208;10.468;2024-01-16T07:19:16;3.63;;;2.00;;
82560;SDS011;72228;51.208;10.468;2024-01-16T07:21:42;3.28;;;1.63;;
82560;SDS011;72228;51.208;10.468;2024-01-16T07:24:10;1.85;;;1.45;;
82560;SDS011;72228;51.208;10.468;2024-01-16T07:26:36;5.50;;;2.22;;
82560;SDS011;72228;51.208;10.468;2024-01-16T07:29:01;5.35;;;2.45;;
82560;SDS011;72228;51.208;10.468;2024-01-16T07:31:27;6.80;;;2.45;;
82560;SDS011;72228;51.208;10.468;2024-01-16T07:33:53;4.53;;;2.88;;
82560;SDS011;72228;51.208;10.468;2024-01-16T07:36:19;12.27;;;3.83;;
82560;SDS011;72228;51.208;10.468;2024-01-16T07:38:45;5.60;;;3.03;;
82560;SDS011;72228;51.208;10.468;2024-01-16T07:41:11;11.93;;;6.20;;
82560;SDS011;72228;51.208;10.468;2024-01-16T07:43:37;7.97;;;4.13;;
82560;SDS011;72228;51.208;10.468;2024-01-16T07:46:03;5.18;;;2.55;;
82560;SDS011;72228;51.208;10.468;2024-01-16T07:48:29;3.33;;;1.70;;
82560;SDS011;72228;51.208;10.468;2024-01-16T07:50:55;6.65;;;2.95;;
82560;SDS011;72228;51.208;10.468;2024-01-16T07:53:21;8.00;;;2.55;;
82560;SDS011;72228;51.208;10.468;2024-01-16T07:55:47;5.53;;;3.33;;
82560;SDS011;72228;51.208;10.468;2024-01-16T07:58:14;2.97;;;2.35;;
82560;SDS011;72228;51.208;10.468;2024-01-16T08:00:40;2.63;;;1.65;;
82560;SDS011;72228;51.208;10.468;2024-01-16T08:03:07;1.27;;;1.00;;
82560;SDS011;72228;51.208;10.468;2024-01-16T08:05:37;3.70;;;1.80;;
82560;SDS011;72228;51.208;10.468;2024-01-16T08:08:04;6.30;;;1.77;;
82560;SDS011;72228;51.208;10.468;2024-01-16T08:10:30;3.85;;;2.08;;
82560;SDS011;72228;51.208;10.468;2024-01-16T08:12:56;5.18;;;2.20;;
82560;SDS011;72228;51.208;10.468;2024-01-16T08:15:22;2.38;;;1.88;;
82560;SDS011;72228;51.208;10.468;2024-01-16T08:17:48;5.22;;;2.40;;
82560;SDS011;72228;51.208;10.468;2024-01-16T08:20:13;3.08;;;2.22;;
82560;SDS011;72228;51.208;10.468;2024-01-16T08:22:39;3.35;;;1.92;;
82560;SDS011;72228;51.208;10.468;2024-01-16T08:25:07;14.10;;;3.10;;
82560;SDS011;72228;51.208;10.468;2024-01-16T08:27:33;2.83;;;1.90;;
82560;SDS011;72228;51.208;10.468;2024-01-16T08:29:59;4.85;;;1.65;;
82560;SDS011;72228;51.208;10.468;2024-01-16T08:32:26;6.93;;;2.50;;
82560;SDS011;72228;51.208;10.468;2024-01-16T08:34:52;7.90;;;3.33;;
82560;SDS011;72228;51.208;10.468;2024-01-16T08:37:19;4.88;;;2.22;;
82560;SDS011;72228;51.208;10.468;2024-01-16T08:39:45;4.85;;;2.55;;
82560;SDS011;72228;51.208;10.468;2024-01-16T08:42:10;11.35;;;3.67;;
82560;SDS011;72228;51.208;10.468;2024-01-16T08:44:38;8.27;;;3.00;;
82560;SDS011;72228;51.208;10.468;2024-01-16T08:47:04;6.63;;;3.17;;
82560;SDS011;72228;51.208;10.468;2024-01-16T08:49:31;3.33;;;1.98;;
82560;SDS011;72228;51.208;10.468;2024-01-16T08:51:58;4.75;;;2.72;;
82560;SDS011;72228;51.208;10.468;2024-01-16T08:54:25;3.42;;;2.20;;
82560;SDS011;72228;51.208;10.468;2024-01-16T08:56:52;5.15;;;3.33;;
82560;SDS011;72228;51.208;10.468;2024-01-16T08:59:18;11.32;;;4.53;;
82560;SDS011;72228;51.208;10.468;2024-01-16T09:01:44;8.27;;;3.67;;
82560;SDS011;72228;51.208;10.468;2024-01-16T09:04:10;8.40;;;2.78;;
82560;SDS011;72228;51.208;10.468;2024-01-16T09:06:37;4.60;;;2.45;;
82560;SDS011;72228;51.208;10.468;2024-01-16T09:09:03;2.60;;;1.77;;
82560;SDS011;72228;51.208;10.468;2024-01-16T09:11:31;3.28;;;1.77;;
82560;SDS011;72228;51.208;10.468;2024-01-16T09:13:57;3.72;;;1.88;;
82560;SDS011;72228;51.208;10.468;2024-01-16T09:16:24;2.10;;;1.52;;
82560;SDS011;72228;51.208;10.468;2024-01-16T09:18:50;4.88;;;2.35;;
82560;SDS011;72228;51.208;10.468;2024-01-16T09:21:15;5.43;;;2.92;;
82560;SDS011;72228;51.208;10.468;2024-01-16T09:23:42;3.58;;;2.50;;
82560;SDS011;72228;51.208;10.468;2024-01-16T09:26:08;4.50;;;1.90;;
82560;SDS011;72228;51.208;10.468;2024-01-16T09:28:33;8.57;;;3.92;;
82560;SDS011;72228;51.208;10.468;2024-01-16T09:30:59;5.97;;;3.38;;
82560;SDS011;72228;51.208;10.468;2024-01-16T09:33:25;5.72;;;2.63;;
82560;SDS011;72228;51.208;10.468;2024-01-16T09:35:51;6.47;;;2.58;;
82560;SDS011;72228;51.208;10.468;2024-01-16T09:38:17;6.40;;;3.05;;
82560;SDS011;72228;51.208;10.468;2024-01-16T09:40:43;8.85;;;2.20;;
82560;SDS011;72228;51.208;10.468;2024-01-16T09:43:10;5.82;;;3.08;;
82560;SDS011;72228;51.208;10.468;2024-01-16T09:45:37;5.55;;;2.67;;
82560;SDS011;72228;51.208;10.468;2024-01-16T09:48:05;9.93;;;3.65;;
82560;SDS011;72228;51.208;10.468;2024-01-16T09:50:33;4.45;;;2.72;;
82560;SDS011;72228;51.208;10.468;2024-01-16T09:53:09;6.75;;;3.17;;
82560;SDS011;72228;51.208;10.468;2024-01-16T09:55:36;3.90;;;2.55;;
82560;SDS011;72228;51.208;10.468;2024-01-16T09:58:02;4.80;;;2.72;;
82560;SDS011;72228;51.208;10.468;2024-01-16T10:00:34;5.25;;;3.22;;
82560;SDS011;72228;51.208;10.468;2024-01-16T10:03:01;9.23;;;4.85;;
82560;SDS011;72228;51.208;10.468;2024-01-16T10:05:30;12.05;;;4.90;;
82560;SDS011;72228;51.208;10.468;2024-01-16T10:07:56;11.75;;;5.22;;
82560;SDS011;72228;51.208;10.468;2024-01-16T10:10:24;12.20;;;6.38;;
82560;SDS011;72228;51.208;10.468;2024-01-16T10:12:54;12.18;;;4.95;;
82560;SDS011;72228;51.208;10.468;2024-01-16T10:15:21;24.85;;;9.77;;
82560;SDS011;72228;51.208;10.468;2024-01-16T10:17:50;14.23;;;5.53;;
82560;SDS011;72228;51.208;10.468;2024-01-16T10:20:19;11.30;;;4.78;;
82560;SDS011;72228;51.208;10.468;2024-01-16T10:23:00;7.32;;;4.20;;
82560;SDS011;72228;51.208;10.468;2024-01-16T10:25:29;12.85;;;6.72;;
82560;SDS011;72228;51.208;10.468;2024-01-16T10:28:04;7.90;;;4.03;;
82560;SDS011;72228;51.208;10.468;2024-01-16T10:30:33;8.32;;;4.28;;
82560;SDS011;72228;51.208;10.468;2024-01-16T10:33:12;5.80;;;3.47;;
82560;SDS011;72228;51.208;10.468;2024-01-16T10:35:40;3.97;;;2.78;;
82560;SDS011;72228;51.208;10.468;2024-01-16T10:38:06;8.68;;;3.83;;
82560;SDS011;72228;51.208;10.468;2024-01-16T10:40:32;4.40;;;2.65;;
82560;SDS011;72228;51.208;10.468;2024-01-16T10:43:00;7.07;;;3.40;;
82560;SDS011;72228;51.208;10.468;2024-01-16T10:45:30;8.57;;;4.35;;
82560;SDS011;72228;51.208;10.468;2024-01-16T10:48:04;5.35;;;3.20;;
82560;SDS011;72228;51.208;10.468;2024-01-16T10:50:32;7.85;;;4.30;;
82560;SDS011;72228;51.208;10.468;2024-01-16T10:53:05;9.23;;;3.97;;
82560;SDS011;72228;51.208;10.468;2024-01-16T10:55:53;6.38;;;3.42;;
82560;SDS011;72228;51.208;10.468;2024-01-16T10:58:20;10.35;;;4.50;;
82560;SDS011;72228;51.208;10.468;2024-01-16T11:00:49;6.20;;;3.45;;
82560;SDS011;72228;51.208;10.468;2024-01-16T11:03:19;7.85;;;3.53;;
82560;SDS011;72228;51.208;10.468;2024-01-16T11:05:57;11.13;;;3.88;;
82560;SDS011;72228;51.208;10.468;2024-01-16T11:08:25;7.30;;;3.17;;
82560;SDS011;72228;51.208;10.468;2024-01-16T11:10:57;8.20;;;3.38;;
82560;SDS011;72228;51.208;10.468;2024-01-16T11:13:32;4.38;;;2.75;;
82560;SDS011;72228;51.208;10.468;2024-01-16T11:16:04;5.53;;;3.25;;
82560;SDS011;72228;51.208;10.468;2024-01-16T11:18:36;5.45;;;2.92;;
82560;SDS011;72228;51.208;10.468;2024-01-16T11:21:05;11.50;;;4.47;;
82560;SDS011;72228;51.208;10.468;2024-01-16T11:23:37;8.10;;;3.60;;
82560;SDS011;72228;51.208;10.468;2024-01-16T11:28:53;9.05;;;3.85;;
82560;SDS011;72228;51.208;10.468;2024-01-16T11:36:43;4.30;;;2.88;;
82560;SDS011;72228;51.208;10.468;2024-01-16T11:39:23;7.50;;;3.63;;
82560;SDS011;72228;51.208;10.468;2024-01-16T11:41:55;9.75;;;2.88;;
82560;SDS011;72228;51.208;10.468;2024-01-16T11:47:09;6.30;;;3.05;;
82560;SDS011;72228;51.208;10.468;2024-01-16T11:49:41;2.85;;;2.10;;
82560;SDS011;72228;51.208;10.468;2024-01-16T11:52:07;6.65;;;3.30;;
82560;SDS011;72228;51.208;10.468;2024-01-16T11:54:34;7.22;;;4.03;;
82560;SDS011;72228;51.208;10.468;2024-01-16T11:57:12;5.10;;;2.88;;
82560;SDS011;72228;51.208;10.468;2024-01-16T12:00:02;6.50;;;2.53;;
82560;SDS011;72228;51.208;10.468;2024-01-16T12:02:51;4.45;;;2.55;;
82560;SDS011;72228;51.208;10.468;2024-01-16T12:05:19;4.78;;;2.50;;
82560;SDS011;72228;51.208;10.468;2024-01-16T12:07:48;8.63;;;3.80;;
82560;SDS011;72228;51.208;10.468;2024-01-16T12:10:16;3.95;;;1.85;;
82560;SDS011;72228;51.208;10.468;2024-01-16T12:12:46;3.72;;;2.28;;
82560;SDS011;72228;51.208;10.468;2024-01-16T12:15:13;4.38;;;2.53;;
82560;SDS011;72228;51.208;10.468;2024-01-16T12:17:53;5.07;;;2.45;;
82560;SDS011;72228;51.208;10.468;2024-01-16T12:20:25;6.05;;;3.05;;
82560;SDS011;72228;51.208;10.468;2024-01-16T12:22:59;9.40;;;4.25;;
82560;SDS011;72228;51.208;10.468;2024-01-16T12:25:30;4.55;;;2.40;;
82560;SDS011;72228;51.208;10.468;2024-01-16T12:27:58;5.00;;;2.30;;
82560;SDS011;72228;51.208;10.468;2024-01-16T12:30:29;4.68;;;2.28;;
82560;SDS011;72228;51.208;10.468;2024-01-16T12:35:37;4.47;;;2.75;;
82560;SDS011;72228;51.208;10.468;2024-01-16T12:38:05;6.55;;;3.30;;
82560;SDS011;72228;51.208;10.468;2024-01-16T12:40:35;5.40;;;2.92;;
82560;SDS011;72228;51.208;10.468;2024-01-16T12:43:02;4.28;;;2.28;;
82560;SDS011;72228;51.208;10.468;2024-01-16T12:45:30;6.07;;;2.70;;
82560;SDS011;72228;51.208;10.468;2024-01-16T12:47:57;8.13;;;3.25;;
82560;SDS011;72228;51.208;10.468;2024-01-16T12:50:33;3.80;;;2.53;;
82560;SDS011;72228;51.208;10.468;2024-01-16T12:53:06;4.82;;;2.95;;
82560;SDS011;72228;51.208;10.468;2024-01-16T12:58:20;4.65;;;2.17;;
82560;SDS011;72228;51.208;10.468;2024-01-16T13:00:50;7.88;;;3.63;;
82560;SDS011;72228;51.208;10.468;2024-01-16T13:05:44;6.82;;;3.40;;
82560;SDS011;72228;51.208;10.468;2024-01-16T13:08:18;4.03;;;2.70;;
82560;SDS011;72228;51.208;10.468;2024-01-16T13:10:46;8.25;;;2.70;;
82560;SDS011;72228;51.208;10.468;2024-01-16T13:13:17;6.75;;;3.80;;
82560;SDS011;72228;51.208;10.468;2024-01-16T13:15:47;6.35;;;3.10;;
82560;SDS011;72228;51.208;10.468;2024-01-16T13:18:25;7.95;;;4.20;;
82560;SDS011;72228;51.208;10.468;2024-01-16T13:20:56;4.78;;;3.10;;
82560;SDS011;72228;51.208;10.468;2024-01-16T13:23:24;6.22;;;3.00;;
82560;SDS011;72228;51.208;10.468;2024-01-16T13:25:51;4.15;;;3.03;;
82560;SDS011;72228;51.208;10.468;2024-01-16T13:28:18;4.07;;;2.70;;
82560;SDS011;72228;51.208;10.468;2024-01-16T13:30:47;9.38;;;5.35;;
82560;SDS011;72228;51.208;10.468;2024-01-16T13:33:14;11.20;;;6.35;;
82560;SDS011;72228;51.208;10.468;2024-01-16T13:35:44;6.53;;;4.13;;
82560;SDS011;72228;51.208;10.468;2024-01-16T13:38:15;4.22;;;3.13;;
82560;SDS011;72228;51.208;10.468;2024-01-16T13:40:42;10.75;;;3.15;;
82560;SDS011;72228;51.208;10.468;2024-01-16T13:43:08;7.13;;;3.88;;
82560;SDS011;72228;51.208;10.468;2024-01-16T13:45:34;6.35;;;3.67;;
82560;SDS011;72228;51.208;10.468;2024-01-16T13:48:04;11.25;;;3.72;;
82560;SDS011;72228;51.208;10.468;2024-01-16T13:50:31;4.43;;;2.58;;
82560;SDS011;72228;51.208;10.468;2024-01-16T13:52:59;9.85;;;3.85;;
82560;SDS011;72228;51.208;10.468;2024-01-16T13:55:25;9.20;;;4.28;;
82560;SDS011;72228;51.208;10.468;2024-01-16T13:57:51;6.18;;;3.97;;
82560;SDS011;72228;51.208;10.468;2024-01-16T14:00:17;4.63;;;3.40;;
82560;SDS011;72228;51.208;10.468;2024-01-16T14:02:44;5.55;;;2.83;;
82560;SDS011;72228;51.208;10.468;2024-01-16T14:05:12;5.70;;;3.53;;
82560;SDS011;72228;51.208;10.468;2024-01-16T14:07:49;8.02;;;3.55;;
82560;SDS011;72228;51.208;10.468;2024-01-16T14:10:18;9.23;;;4.30;;
82560;SDS011;72228;51.208;10.468;2024-01-16T14:12:45;6.88;;;4.50;;
82560;SDS011;72228;51.208;10.468;2024-01-16T14:15:12;7.95;;;4.55;;
82560;SDS011;72228;51.208;10.468;2024-01-16T14:17:52;6.95;;;4.55;;
82560;SDS011;72228;51.208;10.468;2024-01-16T14:20:20;7.43;;;3.35;;
82560;SDS011;72228;51.208;10.468;2024-01-16T14:22:49;8.35;;;5.45;;
82560;SDS011;72228;51.208;10.468;2024-01-16T14:25:17;6.57;;;3.67;;
82560;SDS011;72228;51.208;10.468;2024-01-16T14:27:45;4.95;;;3.10;;
82560;SDS011;72228;51.208;10.468;2024-01-16T14:30:15;5.38;;;3.05;;
82560;SDS011;72228;51.208;10.468;2024-01-16T14:32:42;8.13;;;3.30;;
82560;SDS011;72228;51.208;10.468;2024-01-16T14:35:10;5.28;;;3.72;;
82560;SDS011;72228;51.208;10.468;2024-01-16T14:40:05;8.88;;;2.80;;
82560;SDS011;72228;51.208;10.468;2024-01-16T14:42:41;6.55;;;2.72;;
82560;SDS011;72228;51.208;10.468;2024-01-16T14:45:13;4.82;;;2.60;;
82560;SDS011;72228;51.208;10.468;2024-01-16T14:47:40;6.50;;;3.67;;
82560;SDS011;72228;51.208;10.468;2024-01-16T14:50:09;6.72;;;2.47;;
82560;SDS011;72228;51.208;10.468;2024-01-16T14:52:35;5.50;;;2.65;;
82560;SDS011;72228;51.208;10.468;2024-01-16T14:55:01;9.63;;;2.45;;
82560;SDS011;72228;51.208;10.468;2024-01-16T14:57:30;8.38;;;2.50;;